Terminal Aerodrome Forecast
Issued by NWS

Home | Current Version | Previous Version | Text Only | Print | Product List | Glossary On
Versions: 1 2 3 4 5 6 7 8 9 10 11 12 13 14 15 16 17
000
FTUS42 KFFC 282321
TAFRYY
TAF
KRYY 282321Z 2900/2924 26007KT P6SM SCT050
     FM290100 00000KT P6SM FEW250
     FM291600 26004KT P6SM SCT045
      AMD NOT SKED 2904/2912=

USA.gov is the U.S. government's official web portal to all federal, state and local government web resources and services.